Meteo Giornale » Osservazioni meteo Italia » Roma-Ciampino

ore: 17:20 - Osservazioni Meteo Roma-Ciampino
Lat. 41° 47' N Lon. 12° 35' E Alt. 129 metri s.l.m.

nuvoloso_temporali Europe/Rome

23 °C

Temporale nelle Vicinanze

Temp. 24 Ore

19 °C

30 °C

Nord-Est

25.9 Km/h

Dew point 17 °C

Umidità 68 %

Visibilità  10 Km

Il sole sorge alle ore 06:18

Il sole tramonta alle ore 20:09

Data e Ora Cielo e Fenomeni T °C DP °C Um. % Pres. hPa Vis. km Vento km/h
Oggi h: 17:20 nuvoloso_temporali Temporale nelle Vicinanze 23 17 68 1014 10 NE 25.9
Oggi h: 16:50 poco_nuvoloso Poco Nuvoloso 29 18 51 1012 10 SO 11.1
Oggi h: 15:50 poco_nuvoloso Poco Nuvoloso 27 18 57 1012 10 S/SE 14.8
Oggi h: 15:20 poco_nuvoloso Poco Nuvoloso 26 19 65 1012 10 S/SE 16.7
Oggi h: 14:50 nuvoloso_temporali Temporale nelle Vicinanze 30 16 42 1013 10 O 9.3
Oggi h: 14:20 poco_nuvoloso Poco Nuvoloso 30 15 40 1012 10 N 3.7
Oggi h: 13:50 poco_nuvoloso Poco Nuvoloso 30 16 42 1013 10 N 5.5
Oggi h: 13:20 poco_nuvoloso Poco Nuvoloso 30 17 45 1013 10 N 5.5
Oggi h: 12:50 sereno Sereno 29 17 48 1013 10 N 5.5
Oggi h: 12:20 sereno Sereno 28 17 51 1013 10 N 5.5
Oggi h: 11:50 sereno Sereno 27 17 54 1013 10 N 3.7
Oggi h: 11:20 sereno Sereno 26 17 57 1013 10 N 5.5
Oggi h: 10:50 sereno Sereno 25 18 65 1013 10 N 5.5
Oggi h: 10:20 sereno Sereno 24 18 69 1013 10 N 7.4
Oggi h: 09:50 sereno Sereno 24 18 69 1013 10 N/NE 9.3
Oggi h: 09:20 sereno Sereno 23 17 68 1013 10 N/NE 9.3
Oggi h: 08:50 sereno Sereno 22 17 73 1013 10 N 13
Oggi h: 08:20 sereno Sereno 21 18 82 1013 10 N/NE 9.3
Oggi h: 07:50 sereno Sereno 20 17 82 1013 10 N 11.1
Oggi h: 07:20 sereno Sereno 20 17 82 1013 10 N/NE 11.1
Oggi h: 06:50 sereno Sereno 19 17 88 1013 10 NE 11.1
Oggi h: 06:20 sereno Sereno 19 17 88 1013 10 NE 9.3
Oggi h: 05:50 sereno Sereno 19 17 88 1013 10 N/NE 9.3
Oggi h: 05:20 sereno Sereno 19 17 88 1013 10 N/NE 11.1
Oggi h: 04:50 sereno Sereno 19 17 88 1013 10 N/NE 7.4
Oggi h: 03:20 sereno Sereno 19 17 88 1013 10 NE 9.3
Oggi h: 02:50 sereno Sereno 19 17 88 1014 10 NE 7.4
Oggi h: 02:20 sereno Sereno 19 17 88 1014 10 N 5.5
Oggi h: 01:50 sereno Sereno 19 17 88 1014 10 N 5.5
Oggi h: 01:20 sereno Sereno 19 17 88 1014 10 N 3.7
Oggi h: 00:50 sereno Sereno 19 17 88 1014 10 N 5.5
Oggi h: 00:20 sereno Sereno 19 17 88 1014 10 N 3.7
Ieri h: 23:50 sereno Sereno 20 17 82 1014 10 N 1.8
Ieri h: 23:20 sereno Sereno 20 17 82 1014 10 N 3.7
Ieri h: 22:50 poco_nuvoloso Poco Nuvoloso 20 18 88 1014 10 E 9.3
Ieri h: 22:20 poco_nuvoloso Poco Nuvoloso 20 18 88 1014 10 N 5.5
Ieri h: 21:50 poco_nuvoloso Poco Nuvoloso 20 17 82 1014 10 N 5.5
Ieri h: 21:20 nuvoloso Nuvoloso 20 19 93 1014 10 N 3.7
Ieri h: 20:50 nuvoloso Nuvoloso 20 19 93 1013 10 N/NE 9.3
Ieri h: 20:20 nuvoloso Nuvoloso 21 19 88 1013 10 N 7.4
Ieri h: 19:50 nuvoloso Nuvoloso 21 19 88 1013 10 NE 9.3
Ieri h: 19:20 nuvoloso Nuvoloso 21 19 88 1013 10 N 3.7
Ieri h: 18:50 nuvoloso Nuvoloso 21 18 82 1013 10 N 5.5
Ieri h: 18:20 nuvoloso Rovescio nelle Vicinanze 20 17 82 1013 10 N 1.8
Ieri h: 17:50 nuvoloso Rovescio nelle Vicinanze 20 19 93 1013 10 N 5.5